Airfield :
LOGIN :

Register | Disclaimer

   EN    FR    IT 

 










Legend :    VFR   Marginal VFR   IFR   Intensive IFR   Very Intensive IFR
Visi :
Ceiling :
>= 8 km
>= 3000ft
5 to 8 km
1000 to 3000 ft
1500m to 5 km
500 to 1000 ft
800 to 1500m
200 to 500 ft
< 800m
< 200 ft
Symbols :   Thunderstorms  Fog  Heavy snow  Heavy precipitations  Wind > 20 kt
SIGMETs :     Misc.  Thunderstorms  Icing  Turbulence  Mountain Waves  Volcanic Ashes






- Airport Elevation : 126 ft
- IATA code : WIC


EGPC - Wick

CURRENT METAR :
  • 210050Z AUTO 16018KT 9999 BKN017/// BKN025/// OVC045/// 09/05 Q1010

EXPIRED METARs :
  • 210020Z AUTO 16017KT 9999 SCT024/// BKN032/// OVC041/// 08/05 Q1010
  • 202350Z AUTO 17016KT 9999 FEW023/// OVC044/// 08/04 Q1010
  • 202320Z AUTO 17014KT 130V200 9999 BKN048/// 08/04 Q1010
  • 202250Z AUTO 17017KT 9999 FEW023/// BKN043/// 08/04 Q1010
  • 202220Z AUTO 17018KT 9999 FEW025/// BKN039/// OVC046/// 08/04 Q1010

TAF TAF EGPC
Valid from the 21 at 00:00 until the 21 at 09:00 UTC


202258Z 2100/2109 17015KT 9999 FEW020 SCT040
TEMPO 2100/2109 17018G28KT
PROB40
TEMPO 2100/2109 8000 -SHRA
ATIS : +44 1955 607 596



MET'MAP, your aeronautical weather chart ! - Copyright ORBIFLY December 2007 - Disclaimer

ORBIFLY MET'MAP TEAM :

Programming & Development : Alexandra Zaïnal
Concept & Development : Baudouin d'Aumeries
Co-Development & Prog : Marc-Olivier Méhu
Technical & hardware support : Manuel Goepfert

Contact : metmap@orbifly.com




SOURCES & CREDITS :

   NOAA